Time;durP1;ratioP1;P1;durP2;ratioP2;P2;SDS_P1;SDS_P2;PMS_P1;PMS_P2;Temp;Humidity;BMP_temperature;BMP_pressure;BME280_temperature;BME280_humidity;BME280_pressure;Samples;Min_cycle;Max_cycle;Signal;HPM_P1;HPM_P2
2021/08/02 00:01:58;;;;;;;5.47;1.67;;;14.10;99.90;;;;;;5148282;28;20387;-86
2021/08/02 00:04:31;;;;;;;5.40;1.42;;;14.10;99.90;;;;;;5148131;28;20069;-86
2021/08/02 00:07:06;;;;;;;7.40;1.67;;;14.10;99.90;;;;;;5148608;28;20035;-86
2021/08/02 00:09:36;;;;;;;4.43;1.73;;;14.10;99.90;;;;;;5115531;28;20075;-86
2021/08/02 00:12:06;;;;;;;7.45;1.73;;;14.10;99.90;;;;;;5148592;28;20498;-86
2021/08/02 00:14:33;;;;;;;6.18;1.60;;;14.10;99.90;;;;;;5147552;28;20040;-86
2021/08/02 00:17:01;;;;;;;6.82;1.73;;;14.20;99.90;;;;;;5131295;28;20050;-86
2021/08/02 00:19:28;;;;;;;5.55;1.42;;;14.20;99.90;;;;;;5131450;28;20031;-87
2021/08/02 00:21:55;;;;;;;4.43;1.52;;;14.20;99.90;;;;;;5131173;28;20035;-86
2021/08/02 00:24:23;;;;;;;4.72;1.42;;;14.20;99.90;;;;;;5147229;28;20047;-85
2021/08/02 00:26:53;;;;;;;8.77;1.70;;;14.20;99.90;;;;;;5114630;28;20043;-87
2021/08/02 00:29:21;;;;;;;4.75;1.38;;;14.20;99.90;;;;;;5151136;28;20036;-86
2021/08/02 00:31:49;;;;;;;7.43;1.60;;;14.20;99.90;;;;;;5152506;28;20066;-86
2021/08/02 00:34:16;;;;;;;9.55;1.50;;;14.20;99.90;;;;;;5135660;28;20396;-87
2021/08/02 00:36:46;;;;;;;6.18;1.38;;;14.20;99.90;;;;;;5134782;28;20038;-86
2021/08/02 00:39:32;;;;;;;5.57;1.55;;;14.20;99.90;;;;;;5152025;28;20036;-86
2021/08/02 00:42:16;;;;;;;4.45;1.35;;;14.20;99.90;;;;;;5152068;28;20039;-86
2021/08/02 00:45:04;;;;;;;4.72;1.30;;;14.30;99.90;;;;;;5151404;28;20135;-85
2021/08/02 00:47:36;;;;;;;5.60;1.42;;;14.30;99.90;;;;;;5151341;28;20046;-85
2021/08/02 00:50:13;;;;;;;5.72;1.48;;;14.30;99.90;;;;;;5152944;28;20494;-85
2021/08/02 00:52:46;;;;;;;4.47;1.45;;;14.20;99.90;;;;;;5152408;28;20088;-85
2021/08/02 00:55:14;;;;;;;6.80;1.80;;;14.20;99.90;;;;;;5151640;28;20377;-86
2021/08/02 00:57:42;;;;;;;5.75;1.55;;;14.20;99.90;;;;;;5133706;28;20036;-86
2021/08/02 01:00:14;;;;;;;5.25;1.52;;;14.20;99.90;;;;;;5134849;28;20514;-87
2021/08/02 01:02:47;;;;;;;7.60;2.08;;;14.20;99.90;;;;;;5151277;28;20101;-86
2021/08/02 01:05:14;;;;;;;8.38;1.40;;;14.20;99.90;;;;;;5151542;28;20092;-86
2021/08/02 01:07:50;;;;;;;5.97;1.80;;;14.20;99.90;;;;;;5117058;28;20047;-85
2021/08/02 01:10:18;;;;;;;5.70;1.50;;;14.20;99.90;;;;;;5151856;28;20122;-86
2021/08/02 01:12:47;;;;;;;9.02;1.52;;;14.20;99.90;;;;;;5133791;28;20411;-85
2021/08/02 01:15:17;;;;;;;4.38;1.40;;;14.20;99.90;;;;;;5151457;28;20035;-87
2021/08/02 01:17:47;;;;;;;3.70;1.40;;;14.20;99.90;;;;;;5133998;28;20092;-86
2021/08/02 01:20:15;;;;;;;4.95;1.50;;;14.20;99.90;;;;;;5151366;28;20036;-86
2021/08/02 01:22:43;;;;;;;6.53;1.45;;;14.20;99.90;;;;;;5151280;28;20089;-85
2021/08/02 01:25:34;;;;;;;6.53;1.67;;;14.20;99.90;;;;;;5151151;28;20127;-86
2021/08/02 01:28:13;;;;;;;8.85;1.60;;;14.20;99.90;;;;;;5151215;28;20043;-86
2021/08/02 01:30:48;;;;;;;8.45;1.80;;;14.10;99.90;;;;;;5152192;28;20040;-86
2021/08/02 01:33:28;;;;;;;11.65;1.98;;;14.10;99.90;;;;;;5152280;28;20463;-86
2021/08/02 01:36:03;;;;;;;6.78;1.60;;;14.10;99.90;;;;;;5150854;28;20065;-85
2021/08/02 01:38:31;;;;;;;5.90;1.65;;;14.10;99.90;;;;;;5149725;28;20067;-84
2021/08/02 01:40:59;;;;;;;4.90;1.70;;;14.00;99.90;;;;;;5133773;28;20031;-85
2021/08/02 01:43:26;;;;;;;7.05;1.65;;;14.00;99.90;;;;;;5133978;28;20039;-86
2021/08/02 01:46:06;;;;;;;5.13;1.45;;;13.90;99.90;;;;;;5116925;28;20050;-86
2021/08/02 01:48:50;;;;;;;5.38;1.40;;;13.90;99.90;;;;;;5150665;28;20483;-86
2021/08/02 01:51:25;;;;;;;10.30;1.98;;;13.90;99.90;;;;;;5151884;28;20115;-86
2021/08/02 01:54:31;;;;;;;3.95;1.70;;;13.90;99.90;;;;;;5150293;28;20060;-86
2021/08/02 01:57:10;;;;;;;8.73;1.83;;;13.90;99.90;;;;;;5151758;28;20040;-86
2021/08/02 01:59:45;;;;;;;4.38;1.60;;;13.80;99.90;;;;;;5150514;28;20398;-86
2021/08/02 02:02:17;;;;;;;4.93;1.60;;;13.80;99.90;;;;;;5150798;28;20080;-87
2021/08/02 02:05:00;;;;;;;9.40;1.77;;;13.90;99.90;;;;;;5151484;28;20408;-86
2021/08/02 02:07:29;;;;;;;7.45;1.92;;;13.90;99.90;;;;;;5150619;28;20038;-86
2021/08/02 02:09:58;;;;;;;3.80;1.70;;;13.90;99.90;;;;;;5150366;28;20028;-87
2021/08/02 02:12:26;;;;;;;10.82;1.90;;;13.90;99.90;;;;;;5133536;28;20500;-86
2021/08/02 02:14:55;;;;;;;3.97;1.67;;;13.90;99.90;;;;;;5133176;28;20044;-86
2021/08/02 02:17:25;;;;;;;6.97;1.88;;;13.90;99.90;;;;;;5150357;28;20034;-87
2021/08/02 02:19:53;;;;;;;7.35;1.70;;;13.90;99.90;;;;;;5150119;28;20039;-86
2021/08/02 02:22:24;;;;;;;6.25;1.85;;;13.90;99.90;;;;;;5150328;28;20032;-86
2021/08/02 02:24:52;;;;;;;4.90;1.70;;;13.90;99.90;;;;;;5149753;28;20472;-86
2021/08/02 02:27:20;;;;;;;4.50;1.60;;;13.80;99.90;;;;;;5150195;28;20468;-87
2021/08/02 02:29:49;;;;;;;6.47;1.77;;;13.90;99.90;;;;;;5149970;28;20035;-87
2021/08/02 02:32:17;;;;;;;10.15;1.80;;;13.90;99.90;;;;;;5151045;28;20059;-86
2021/08/02 02:34:46;;;;;;;7.70;2.00;;;13.90;99.90;;;;;;5149353;28;20036;-86
2021/08/02 02:37:14;;;;;;;7.43;1.98;;;13.80;99.90;;;;;;5150042;28;20036;-87
2021/08/02 02:39:42;;;;;;;6.85;1.77;;;13.80;99.90;;;;;;5132555;28;20039;-86
2021/08/02 02:42:09;;;;;;;4.40;1.63;;;13.80;99.90;;;;;;5132859;28;20038;-86
2021/08/02 02:44:37;;;;;;;6.68;2.00;;;13.70;99.90;;;;;;5132930;28;20169;-86
2021/08/02 02:47:05;;;;;;;7.32;2.00;;;13.80;99.90;;;;;;5133175;28;20055;-86
2021/08/02 02:49:34;;;;;;;7.68;2.25;;;13.80;99.90;;;;;;5116251;28;20080;-86
2021/08/02 02:52:03;;;;;;;6.35;1.80;;;13.80;99.90;;;;;;5148757;28;20035;-87
2021/08/02 02:54:31;;;;;;;7.05;2.30;;;13.80;99.90;;;;;;5115981;28;20057;-87
2021/08/02 02:56:58;;;;;;;7.13;2.00;;;13.80;99.90;;;;;;5132275;28;20038;-86
2021/08/02 02:59:26;;;;;;;5.82;1.88;;;13.80;99.90;;;;;;5116056;28;20054;-86
2021/08/02 03:01:54;;;;;;;8.50;1.98;;;13.80;99.90;;;;;;5150031;28;20063;-86
2021/08/02 03:04:24;;;;;;;7.45;1.98;;;13.80;99.90;;;;;;5149361;28;20054;-86
2021/08/02 03:06:54;;;;;;;7.00;2.20;;;13.80;99.90;;;;;;5149091;28;20073;-86
2021/08/02 03:09:24;;;;;;;8.02;1.98;;;13.80;99.90;;;;;;5149659;28;20032;-87
2021/08/02 03:11:51;;;;;;;7.68;2.05;;;13.80;99.90;;;;;;5149279;28;20039;-86
2021/08/02 03:14:19;;;;;;;7.50;1.80;;;13.80;99.90;;;;;;5132420;28;20039;-86
2021/08/02 03:16:46;;;;;;;5.93;2.22;;;13.80;99.90;;;;;;5148554;28;20040;-86
2021/08/02 03:19:13;;;;;;;5.47;1.85;;;13.80;99.90;;;;;;5131951;28;20058;-85
2021/08/02 03:21:39;;;;;;;9.45;1.92;;;13.80;99.90;;;;;;5131285;28;20058;-85
2021/08/02 03:24:44;;;;;;;7.18;1.80;;;13.90;99.90;;;;;;5114393;28;20105;-86
2021/08/02 03:27:26;;;;;;;6.10;1.90;;;13.80;99.90;;;;;;5149804;28;20043;-86
2021/08/02 03:29:57;;;;;;;9.25;2.35;;;13.90;99.90;;;;;;5148349;28;20040;-86
2021/08/02 03:32:26;;;;;;;6.75;1.67;;;13.90;99.90;;;;;;5149024;28;20042;-87
2021/08/02 03:35:02;;;;;;;7.32;1.92;;;13.90;99.90;;;;;;5148408;28;20046;-86
2021/08/02 03:37:32;;;;;;;7.88;1.98;;;13.80;99.90;;;;;;5150005;28;20119;-86
2021/08/02 03:40:01;;;;;;;11.02;2.45;;;13.90;99.90;;;;;;5148571;28;20042;-86
2021/08/02 03:42:29;;;;;;;6.03;1.85;;;13.90;99.90;;;;;;5131551;28;20059;-85
2021/08/02 03:44:57;;;;;;;8.73;2.22;;;13.90;99.90;;;;;;5131181;28;20078;-85
2021/08/02 03:47:24;;;;;;;5.70;1.80;;;13.80;99.90;;;;;;5148253;28;20027;-85
2021/08/02 03:49:51;;;;;;;6.57;1.90;;;13.80;99.90;;;;;;5127175;28;20671;-86
2021/08/02 03:52:18;;;;;;;10.80;1.80;;;13.90;99.90;;;;;;5127859;28;20044;-87
2021/08/02 03:54:45;;;;;;;5.70;1.77;;;13.90;99.90;;;;;;5110637;28;20051;-85
2021/08/02 03:57:13;;;;;;;5.78;1.80;;;13.80;99.90;;;;;;5147839;28;20031;-86
2021/08/02 03:59:41;;;;;;;7.75;1.70;;;13.90;99.90;;;;;;5115852;28;20039;-86
2021/08/02 04:02:08;;;;;;;6.03;1.70;;;13.80;99.90;;;;;;5110596;28;20051;-86
2021/08/02 04:04:35;;;;;;;9.27;1.73;;;13.80;99.90;;;;;;5130732;28;20101;-86
2021/08/02 04:07:02;;;;;;;5.05;1.42;;;13.70;99.90;;;;;;5094164;28;20035;-86
2021/08/02 04:09:29;;;;;;;9.30;2.00;;;13.70;99.90;;;;;;5094555;28;20038;-86
2021/08/02 04:11:56;;;;;;;5.00;1.75;;;13.70;99.90;;;;;;5127553;28;20040;-86
2021/08/02 04:14:24;;;;;;;5.53;1.48;;;13.60;99.90;;;;;;5094576;28;20119;-87
2021/08/02 04:16:51;;;;;;;7.95;1.77;;;13.60;99.90;;;;;;5094139;28;20135;-85
2021/08/02 04:19:18;;;;;;;4.35;1.40;;;13.60;99.90;;;;;;5094328;28;20043;-86
2021/08/02 04:21:44;;;;;;;5.65;1.35;;;13.60;99.90;;;;;;5110134;28;20047;-85
2021/08/02 04:24:11;;;;;;;7.07;1.42;;;13.60;99.90;;;;;;5110238;28;20067;-86
2021/08/02 04:26:38;;;;;;;5.63;1.52;;;13.60;99.90;;;;;;5111023;28;20119;-86
2021/08/02 04:29:05;;;;;;;4.80;1.50;;;13.70;99.90;;;;;;5110656;28;20071;-86
2021/08/02 04:31:34;;;;;;;5.75;1.50;;;13.60;99.90;;;;;;5110999;28;20036;-87
2021/08/02 04:34:00;;;;;;;6.13;1.42;;;13.60;99.90;;;;;;5127577;28;20040;-86
2021/08/02 04:36:27;;;;;;;8.05;1.77;;;13.60;99.90;;;;;;5094523;28;20039;-87
2021/08/02 04:38:55;;;;;;;6.70;1.58;;;13.60;99.90;;;;;;5093829;28;20111;-86
2021/08/02 04:41:21;;;;;;;5.70;1.60;;;13.60;99.90;;;;;;5110581;28;20400;-86
2021/08/02 04:43:48;;;;;;;3.97;1.42;;;13.60;99.90;;;;;;5094060;28;20028;-85
2021/08/02 04:46:15;;;;;;;8.70;1.60;;;13.60;99.90;;;;;;5110337;28;20381;-86
2021/08/02 04:48:43;;;;;;;4.95;1.48;;;13.60;99.90;;;;;;5110813;28;20048;-86
2021/08/02 04:51:10;;;;;;;6.07;1.73;;;13.60;99.90;;;;;;5126983;28;20365;-86
2021/08/02 04:53:39;;;;;;;5.15;1.60;;;13.60;99.90;;;;;;5110570;28;20420;-86
2021/08/02 04:56:06;;;;;;;7.72;1.58;;;13.60;99.90;;;;;;5110409;28;20040;-86
2021/08/02 04:58:32;;;;;;;4.30;1.45;;;13.60;99.90;;;;;;5127603;28;20032;-87
2021/08/02 05:01:02;;;;;;;5.70;1.55;;;13.60;99.90;;;;;;5111264;28;20036;-86
2021/08/02 05:03:29;;;;;;;4.38;1.50;;;13.70;99.90;;;;;;5127226;28;20502;-86
2021/08/02 05:05:56;;;;;;;5.40;1.70;;;13.60;99.90;;;;;;5110212;28;20040;-84
2021/08/02 05:08:23;;;;;;;6.20;1.70;;;13.70;99.90;;;;;;5110600;28;20036;-86
2021/08/02 05:10:50;;;;;;;5.40;1.52;;;13.70;99.90;;;;;;5127468;28;20036;-87
2021/08/02 05:13:17;;;;;;;7.28;1.60;;;13.70;99.90;;;;;;5126864;28;20074;-86
2021/08/02 05:15:44;;;;;;;6.25;1.70;;;13.70;99.90;;;;;;5097527;28;20051;-86
2021/08/02 05:18:11;;;;;;;6.20;1.38;;;13.80;99.90;;;;;;5097197;28;20110;-87
2021/08/02 05:20:38;;;;;;;6.05;1.73;;;13.70;99.90;;;;;;5114175;28;20043;-86
2021/08/02 05:23:05;;;;;;;7.15;1.60;;;13.70;99.90;;;;;;5113481;28;20131;-85
2021/08/02 05:25:32;;;;;;;8.32;1.70;;;13.70;99.90;;;;;;5130599;28;20046;-86
2021/08/02 05:27:59;;;;;;;8.00;1.45;;;13.70;99.90;;;;;;5096975;28;20114;-83
2021/08/02 05:30:26;;;;;;;4.85;1.48;;;13.70;99.90;;;;;;5097094;28;20499;-86
2021/08/02 05:32:53;;;;;;;5.70;1.70;;;13.70;99.90;;;;;;5097109;28;20043;-86
2021/08/02 05:35:20;;;;;;;6.18;1.42;;;13.80;99.90;;;;;;5113456;28;20036;-86
2021/08/02 05:37:47;;;;;;;5.32;1.73;;;13.80;99.90;;;;;;5113256;28;20038;-86
2021/08/02 05:40:14;;;;;;;5.32;1.60;;;13.90;99.90;;;;;;5130743;28;20036;-85
2021/08/02 05:42:41;;;;;;;8.30;1.83;;;13.90;99.90;;;;;;5130216;28;20042;-85
2021/08/02 05:45:09;;;;;;;3.53;1.27;;;14.00;99.90;;;;;;5129086;28;20066;-84
2021/08/02 05:47:37;;;;;;;8.43;1.40;;;14.10;99.90;;;;;;5130139;28;20397;-85
2021/08/02 05:50:04;;;;;;;5.45;1.75;;;14.20;99.90;;;;;;5113247;28;20468;-85
2021/08/02 05:52:32;;;;;;;5.57;1.40;;;14.30;99.90;;;;;;5130148;28;20373;-85
2021/08/02 05:55:00;;;;;;;6.78;1.63;;;14.40;99.90;;;;;;5096542;28;20467;-85
2021/08/02 05:57:27;;;;;;;5.93;1.60;;;14.50;99.90;;;;;;5095967;28;20085;-85
2021/08/02 05:59:54;;;;;;;13.05;3.25;;;14.60;99.90;;;;;;5096224;28;20036;-84
2021/08/02 06:02:21;;;;;;;4.95;1.52;;;14.70;99.90;;;;;;5129138;28;20067;-84
2021/08/02 06:04:47;;;;;;;4.90;1.40;;;14.70;99.90;;;;;;5096462;28;20039;-85
2021/08/02 06:07:14;;;;;;;5.35;1.40;;;14.70;99.90;;;;;;5095759;28;20067;-85
2021/08/02 06:09:41;;;;;;;6.25;1.55;;;14.60;99.90;;;;;;5096557;28;20093;-86
2021/08/02 06:12:25;;;;;;;6.10;1.52;;;14.60;99.90;;;;;;5123389;28;20050;-85
2021/08/02 06:14:56;;;;;;;10.43;2.38;;;14.60;99.90;;;;;;5134363;28;20039;-86
2021/08/02 06:17:23;;;;;;;4.32;1.38;;;14.50;99.90;;;;;;5116042;28;20468;-84
2021/08/02 06:19:50;;;;;;;5.15;1.70;;;14.50;99.90;;;;;;5134122;28;20035;-86
2021/08/02 06:22:17;;;;;;;4.70;1.35;;;14.50;99.90;;;;;;5132562;28;20085;-86
2021/08/02 06:24:44;;;;;;;8.35;1.80;;;14.50;99.90;;;;;;5126646;28;20449;-85
2021/08/02 06:27:11;;;;;;;5.97;1.65;;;14.50;99.90;;;;;;5124019;28;20036;-86
2021/08/02 06:29:38;;;;;;;7.35;1.65;;;14.60;99.90;;;;;;5099696;28;20039;-86
2021/08/02 06:32:06;;;;;;;7.28;1.95;;;14.60;99.90;;;;;;5149373;28;20449;-86
2021/08/02 06:34:42;;;;;;;5.72;1.55;;;14.70;99.90;;;;;;5102934;28;20480;-86
2021/08/02 06:37:09;;;;;;;5.82;1.60;;;14.70;99.90;;;;;;5111772;28;20116;-82
2021/08/02 06:39:36;;;;;;;8.13;1.40;;;14.80;99.90;;;;;;5095594;28;20032;-87
2021/08/02 06:42:03;;;;;;;5.78;1.48;;;14.80;99.90;;;;;;5112333;28;20505;-85
2021/08/02 06:44:30;;;;;;;7.93;1.40;;;14.90;99.90;;;;;;5130264;28;20101;-87
2021/08/02 06:46:56;;;;;;;8.95;1.95;;;15.00;99.90;;;;;;5096896;28;20123;-84
2021/08/02 06:49:23;;;;;;;6.63;1.55;;;15.10;99.90;;;;;;5094762;28;20042;-85
2021/08/02 06:51:50;;;;;;;6.32;1.65;;;15.20;99.90;;;;;;5095587;28;20032;-86
2021/08/02 06:54:17;;;;;;;7.78;1.30;;;15.40;99.90;;;;;;5111674;28;20044;-86
2021/08/02 06:56:44;;;;;;;7.35;1.48;;;15.40;99.90;;;;;;5095683;28;20036;-87
2021/08/02 06:59:11;;;;;;;6.95;1.67;;;15.60;99.90;;;;;;5095135;28;20534;-86
2021/08/02 07:01:37;;;;;;;7.40;1.30;;;15.80;99.90;;;;;;5095116;28;20581;-88
2021/08/02 07:04:05;;;;;;;6.75;1.33;;;15.90;99.90;;;;;;5128890;28;20028;-86
2021/08/02 07:06:32;;;;;;;7.63;1.42;;;15.90;99.90;;;;;;5095711;28;20449;-86
2021/08/02 07:08:58;;;;;;;5.68;1.60;;;16.00;99.90;;;;;;5128731;28;20052;-82
2021/08/02 07:11:26;;;;;;;7.20;1.33;;;15.90;99.90;;;;;;5110718;28;20043;-83
2021/08/02 07:13:54;;;;;;;8.15;1.67;;;15.90;99.90;;;;;;5128861;28;20090;-81
2021/08/02 07:16:22;;;;;;;5.28;1.15;;;15.80;99.90;;;;;;5128562;28;20085;-82
2021/08/02 07:18:51;;;;;;;7.13;1.52;;;15.90;99.90;;;;;;5111333;28;20043;-82
2021/08/02 07:21:19;;;;;;;3.78;1.25;;;15.80;99.90;;;;;;5127451;28;20532;-82
2021/08/02 07:23:46;;;;;;;6.10;1.52;;;15.80;99.90;;;;;;5128853;28;20122;-83
2021/08/02 07:26:13;;;;;;;5.10;1.13;;;15.80;99.90;;;;;;5148176;28;20028;-84
2021/08/02 07:28:41;;;;;;;3.97;1.20;;;15.70;99.90;;;;;;5148045;28;20119;-85
2021/08/02 07:31:08;;;;;;;4.32;1.10;;;15.70;99.90;;;;;;5148107;28;20040;-78
2021/08/02 07:33:34;;;;;;;7.82;1.00;;;15.90;99.90;;;;;;5147089;28;20044;-77
2021/08/02 07:36:02;;;;;;;5.50;1.15;;;16.00;99.90;;;;;;5136763;28;20069;-79
2021/08/02 07:38:29;;;;;;;5.97;1.20;;;16.00;99.90;;;;;;5147166;28;20039;-74
2021/08/02 07:40:58;;;;;;;6.43;1.52;;;16.00;99.90;;;;;;5145198;28;20084;-77
2021/08/02 07:43:28;;;;;;;5.45;1.38;;;16.00;99.90;;;;;;5119078;28;20036;-78
2021/08/02 07:45:55;;;;;;;7.93;1.27;;;16.20;99.90;;;;;;5098831;28;20032;-77
2021/08/02 07:48:23;;;;;;;7.45;1.30;;;16.40;99.90;;;;;;5146928;28;20118;-77
2021/08/02 07:50:49;;;;;;;2.70;1.00;;;16.60;99.90;;;;;;5147476;28;20535;-75
2021/08/02 07:53:16;;;;;;;4.40;1.08;;;16.90;99.90;;;;;;5146976;28;20198;-79
2021/08/02 07:55:44;;;;;;;4.80;1.30;;;16.80;99.90;;;;;;5103224;28;20028;-78
2021/08/02 07:58:11;;;;;;;9.48;1.45;;;16.80;99.90;;;;;;5132688;28;20377;-83
2021/08/02 08:00:39;;;;;;;4.28;1.20;;;16.80;99.90;;;;;;5112935;28;20498;-81
2021/08/02 08:03:05;;;;;;;7.93;1.42;;;16.70;99.90;;;;;;5130629;28;20536;-81
2021/08/02 08:05:32;;;;;;;2.50;0.90;;;16.70;99.90;;;;;;5147310;28;20169;-81
2021/08/02 08:07:59;;;;;;;4.05;1.27;;;16.60;99.90;;;;;;5129158;28;20047;-83
2021/08/02 08:10:27;;;;;;;6.63;1.25;;;16.60;99.90;;;;;;5093151;28;20038;-83
2021/08/02 08:12:55;;;;;;;4.45;1.15;;;16.70;99.90;;;;;;5126384;28;20039;-83
2021/08/02 08:15:23;;;;;;;6.20;1.67;;;16.60;99.90;;;;;;5109010;28;20043;-81
2021/08/02 08:17:51;;;;;;;7.22;1.40;;;16.60;99.90;;;;;;5093519;28;20039;-82
2021/08/02 08:20:23;;;;;;;8.60;1.40;;;16.70;99.90;;;;;;5126868;28;20400;-82
2021/08/02 08:22:51;;;;;;;4.50;1.20;;;16.70;99.90;;;;;;5126749;28;20071;-81
2021/08/02 08:25:18;;;;;;;5.60;1.10;;;16.90;99.90;;;;;;5138725;28;20408;-81
2021/08/02 08:27:45;;;;;;;2.95;0.90;;;16.90;99.90;;;;;;5128348;28;20044;-82
2021/08/02 08:30:13;;;;;;;5.85;1.05;;;17.00;99.90;;;;;;5146965;28;20038;-83
2021/08/02 08:32:40;;;;;;;10.63;0.90;;;17.00;99.90;;;;;;5129289;28;20039;-82
2021/08/02 08:35:08;;;;;;;4.65;1.02;;;17.00;99.90;;;;;;5126146;28;20042;-82
2021/08/02 08:37:34;;;;;;;4.80;1.15;;;17.10;99.90;;;;;;5138489;28;20385;-81
2021/08/02 08:40:02;;;;;;;3.40;1.08;;;17.20;99.90;;;;;;5130402;28;20039;-83
2021/08/02 08:42:29;;;;;;;3.25;0.82;;;17.40;99.90;;;;;;5113101;28;20092;-83
2021/08/02 08:44:56;;;;;;;4.75;0.80;;;17.50;99.90;;;;;;5126754;28;20036;-82
2021/08/02 08:47:23;;;;;;;4.88;1.13;;;17.70;99.90;;;;;;5109990;28;20387;-82
2021/08/02 08:49:50;;;;;;;3.38;0.82;;;17.90;99.90;;;;;;5129200;28;20174;-82
2021/08/02 08:52:16;;;;;;;2.65;0.80;;;17.90;99.90;;;;;;5097077;28;20526;-83
2021/08/02 08:54:43;;;;;;;3.25;1.08;;;18.00;99.90;;;;;;5113078;28;20063;-83
2021/08/02 08:57:12;;;;;;;2.03;0.80;;;18.00;99.90;;;;;;5084890;28;20043;-84
2021/08/02 08:59:47;;;;;;;2.80;0.80;;;18.10;99.90;;;;;;5133989;28;20081;-82
2021/08/02 09:02:14;;;;;;;2.05;0.75;;;18.10;99.90;;;;;;5151192;28;20042;-83
2021/08/02 09:04:51;;;;;;;2.15;0.70;;;18.00;99.90;;;;;;5116944;28;20230;-84
2021/08/02 09:07:18;;;;;;;2.80;1.00;;;18.10;99.90;;;;;;5150608;28;20055;-85
2021/08/02 09:09:45;;;;;;;6.78;1.20;;;18.20;99.90;;;;;;5150784;28;20124;-83
2021/08/02 09:12:14;;;;;;;4.22;0.93;;;18.30;99.90;;;;;;5133877;28;20039;-85
2021/08/02 09:15:03;;;;;;;2.78;0.90;;;18.50;99.90;;;;;;5133365;28;20130;-86
2021/08/02 09:17:38;;;;;;;2.97;0.90;;;18.60;99.90;;;;;;5149664;28;20031;-86
2021/08/02 09:20:16;;;;;;;4.05;0.82;;;18.90;99.90;;;;;;5120312;28;20032;-87
2021/08/02 09:22:43;;;;;;;3.70;1.08;;;19.00;99.90;;;;;;5130343;28;20044;-88
2021/08/02 09:25:16;;;;;;;3.47;0.73;;;18.80;99.90;;;;;;5145469;28;20361;-88
2021/08/02 09:27:43;;;;;;;3.13;1.00;;;18.70;99.90;;;;;;5151234;28;20043;-88
2021/08/02 09:30:21;;;;;;;3.60;1.10;;;18.60;99.90;;;;;;5152248;28;20034;-86
2021/08/02 09:32:52;;;;;;;3.25;0.77;;;18.80;99.90;;;;;;5151694;28;20109;-89
2021/08/02 09:35:36;;;;;;;4.97;1.17;;;18.80;99.90;;;;;;5150538;28;20032;-85
2021/08/02 09:38:11;;;;;;;3.13;0.80;;;18.50;99.90;;;;;;5139937;28;20039;-88
2021/08/02 09:40:39;;;;;;;4.15;1.08;;;18.30;99.90;;;;;;5130582;28;20036;-88
2021/08/02 09:43:08;;;;;;;5.53;1.40;;;18.10;99.90;;;;;;5130795;28;20446;-87
2021/08/02 09:45:52;;;;;;;3.97;0.90;;;17.90;99.90;;;;;;5130843;28;20032;-88
2021/08/02 09:48:21;;;;;;;4.00;1.08;;;17.70;99.90;;;;;;5138691;28;20043;-85
2021/08/02 09:50:49;;;;;;;4.20;1.02;;;17.40;99.90;;;;;;5142065;28;20040;-87
2021/08/02 09:53:20;;;;;;;3.92;1.02;;;17.30;99.90;;;;;;5120011;28;20032;-87
2021/08/02 09:55:48;;;;;;;2.60;0.82;;;17.20;99.90;;;;;;5116578;28;20385;-86
2021/08/02 09:58:18;;;;;;;4.10;1.00;;;17.20;99.90;;;;;;5150254;28;20047;-87
2021/08/02 10:00:46;;;;;;;3.28;0.90;;;17.20;99.90;;;;;;5148293;28;20058;-86
2021/08/02 10:03:15;;;;;;;7.10;1.10;;;17.20;99.90;;;;;;5129205;28;20189;-87
2021/08/02 10:05:43;;;;;;;4.63;0.98;;;17.20;99.90;;;;;;5114938;28;20042;-87
2021/08/02 10:08:09;;;;;;;3.83;1.10;;;17.20;99.90;;;;;;5120436;28;20039;-88
2021/08/02 10:10:37;;;;;;;3.42;0.90;;;17.30;99.90;;;;;;5114554;28;20036;-88
2021/08/02 10:13:05;;;;;;;3.92;0.80;;;17.40;99.90;;;;;;5112948;28;20036;-87
2021/08/02 10:15:32;;;;;;;2.80;1.02;;;17.40;99.90;;;;;;5130761;28;20036;-85
2021/08/02 10:18:05;;;;;;;3.95;1.00;;;17.60;99.90;;;;;;5148659;28;20035;-87
2021/08/02 10:20:34;;;;;;;5.05;1.23;;;17.60;99.90;;;;;;5129266;28;20503;-88
2021/08/02 10:23:03;;;;;;;6.65;1.88;;;17.70;99.90;;;;;;5115224;28;20040;-87
2021/08/02 10:25:32;;;;;;;4.68;0.90;;;17.70;99.90;;;;;;5113885;28;20066;-86
2021/08/02 10:28:09;;;;;;;6.15;1.30;;;17.70;99.90;;;;;;5130342;28;20032;-87
2021/08/02 10:30:37;;;;;;;4.30;1.35;;;17.80;99.90;;;;;;5129320;28;20081;-89
2021/08/02 10:33:04;;;;;;;4.68;1.45;;;17.80;99.90;;;;;;5129669;28;20073;-88
2021/08/02 10:35:34;;;;;;;4.07;1.33;;;17.90;99.90;;;;;;5128948;28;20043;-86
2021/08/02 10:38:03;;;;;;;5.93;1.23;;;18.00;99.90;;;;;;5129134;28;20123;-87
2021/08/02 10:40:41;;;;;;;5.30;1.23;;;18.10;99.90;;;;;;5146196;28;20036;-79
2021/08/02 10:43:09;;;;;;;3.72;1.08;;;18.20;99.90;;;;;;5129983;28;20172;-85
2021/08/02 10:45:38;;;;;;;7.20;1.40;;;18.30;99.90;;;;;;5128111;28;20040;-83
2021/08/02 10:48:05;;;;;;;7.82;1.58;;;18.20;99.90;;;;;;5136668;28;20066;-82
2021/08/02 10:50:42;;;;;;;5.65;1.10;;;18.10;99.90;;;;;;5127422;28;20047;-83
2021/08/02 10:53:19;;;;;;;5.35;1.33;;;18.00;99.90;;;;;;5148821;28;20036;-82
2021/08/02 10:55:52;;;;;;;5.78;1.65;;;17.90;99.90;;;;;;5114141;28;20036;-82
2021/08/02 10:58:34;;;;;;;5.25;1.20;;;17.80;99.90;;;;;;5128293;28;20039;-82
2021/08/02 11:01:02;;;;;;;5.97;1.20;;;17.70;99.90;;;;;;5128082;28;20036;-82
2021/08/02 11:03:40;;;;;;;5.15;1.20;;;17.60;99.90;;;;;;5131689;28;20103;-82
2021/08/02 11:06:19;;;;;;;6.25;1.30;;;17.70;99.90;;;;;;5148549;28;20085;-83
2021/08/02 11:08:52;;;;;;;5.80;1.20;;;17.70;99.90;;;;;;5145201;28;20034;-82
2021/08/02 11:11:31;;;;;;;5.78;1.55;;;17.70;99.90;;;;;;5137927;28;20036;-82
2021/08/02 11:14:17;;;;;;;7.45;1.33;;;17.80;99.90;;;;;;5125162;28;20408;-81
2021/08/02 11:16:53;;;;;;;6.90;1.15;;;17.80;99.90;;;;;;5136015;28;20036;-78
2021/08/02 11:19:35;;;;;;;5.90;1.17;;;17.80;99.90;;;;;;5128145;28;20028;-84
2021/08/02 11:22:06;;;;;;;6.55;1.20;;;17.70;99.90;;;;;;5110467;28;20447;-84
2021/08/02 11:24:54;;;;;;;3.40;1.08;;;17.70;99.90;;;;;;5111622;28;20040;-85
2021/08/02 11:27:23;;;;;;;4.97;1.27;;;17.70;99.90;;;;;;5128105;28;20097;-86
2021/08/02 11:29:52;;;;;;;2.88;1.13;;;17.50;99.90;;;;;;5110900;28;20036;-86
2021/08/02 11:32:20;;;;;;;6.50;1.25;;;17.40;99.90;;;;;;5110901;28;20040;-85
2021/08/02 11:34:55;;;;;;;2.83;1.05;;;17.40;99.90;;;;;;5145201;28;20032;-85
2021/08/02 11:37:23;;;;;;;;;;;17.40;99.90;;;;;;5148508;28;20076;-85
2021/08/02 11:39:58;;;;;;;5.32;1.20;;;17.30;99.90;;;;;;5147225;28;19916;-85
2021/08/02 11:42:27;;;;;;;3.67;1.00;;;17.30;99.90;;;;;;5148707;28;20034;-86
2021/08/02 11:44:57;;;;;;;4.85;1.30;;;17.30;99.90;;;;;;5148185;28;20036;-85
2021/08/02 11:47:27;;;;;;;4.97;1.02;;;17.40;99.90;;;;;;5148115;28;20028;-85
2021/08/02 11:49:57;;;;;;;2.22;0.90;;;17.40;99.90;;;;;;5142045;28;20473;-85
2021/08/02 11:52:26;;;;;;;4.20;1.02;;;17.60;99.90;;;;;;5130282;28;20032;-87
2021/08/02 11:55:10;;;;;;;3.88;0.90;;;17.60;99.90;;;;;;5123871;28;20072;-86
2021/08/02 11:57:37;;;;;;;3.78;0.80;;;17.60;99.90;;;;;;5132201;28;20114;-85
2021/08/02 12:00:10;;;;;;;4.85;0.88;;;17.70;99.90;;;;;;5119296;28;20060;-87
2021/08/02 12:02:41;;;;;;;1.42;0.70;;;17.90;99.90;;;;;;5133638;28;20036;-86
2021/08/02 12:05:26;;;;;;;2.67;0.80;;;18.30;99.90;;;;;;5127538;28;20040;-87
2021/08/02 12:07:54;;;;;;;2.53;1.10;;;18.60;99.90;;;;;;5139268;28;20042;-84
2021/08/02 12:10:22;;;;;;;1.73;0.80;;;19.00;99.90;;;;;;5148039;28;20035;-84
2021/08/02 12:12:59;;;;;;;2.40;0.73;;;19.50;99.90;;;;;;5130512;28;20531;-86
2021/08/02 12:15:27;;;;;;;3.78;0.80;;;19.80;99.90;;;;;;5149294;27;20039;-85
2021/08/02 12:17:55;;;;;;;2.33;0.75;;;20.00;99.90;;;;;;5130440;28;20042;-88
2021/08/02 12:20:32;;;;;;;2.13;0.70;;;20.10;99.90;;;;;;5119569;28;20512;-86
2021/08/02 12:23:00;;;;;;;5.47;0.90;;;20.30;99.90;;;;;;5127083;28;20477;-87
2021/08/02 12:25:43;;;;;;;3.92;0.82;;;20.30;99.90;;;;;;5132012;28;20040;-85
2021/08/02 12:28:10;;;;;;;1.75;0.70;;;20.20;99.90;;;;;;5131776;28;20556;-84
2021/08/02 12:30:38;;;;;;;4.57;0.63;;;19.90;99.90;;;;;;5148198;28;20118;-86
2021/08/02 12:33:08;;;;;;;2.28;0.75;;;19.60;99.90;;;;;;5134299;28;20047;-85
2021/08/02 12:35:36;;;;;;;4.00;1.00;;;19.30;99.90;;;;;;5110278;28;20399;-85
2021/08/02 12:38:04;;;;;;;4.30;0.93;;;19.00;99.90;;;;;;5151485;28;20036;-83
2021/08/02 12:40:32;;;;;;;2.53;0.70;;;18.90;99.90;;;;;;5153418;28;20042;-85
2021/08/02 12:42:59;;;;;;;4.55;0.80;;;18.80;99.90;;;;;;5100881;28;20035;-86
2021/08/02 12:45:26;;;;;;;1.67;0.80;;;18.70;99.90;;;;;;5151680;28;20036;-84
2021/08/02 12:47:53;;;;;;;2.90;0.70;;;18.60;99.90;;;;;;5151385;28;20042;-85
2021/08/02 12:50:22;;;;;;;4.82;1.20;;;18.80;99.90;;;;;;5121484;28;20427;-84
2021/08/02 12:52:49;;;;;;;3.92;0.90;;;18.90;99.90;;;;;;5129912;28;20537;-83
2021/08/02 12:55:16;;;;;;;2.90;0.93;;;19.00;99.90;;;;;;5122193;28;20048;-84
2021/08/02 12:57:43;;;;;;;1.83;0.60;;;18.90;99.90;;;;;;5130824;28;20074;-83
2021/08/02 13:00:12;;;;;;;4.25;0.82;;;18.80;99.90;;;;;;5131316;28;20032;-83
2021/08/02 13:02:40;;;;;;;3.33;0.88;;;18.70;99.90;;;;;;5130718;28;20119;-83